Ira, TX (79527)

9:30 AM CST on January 21, 2017 (GMT -0600)
IRA | | Change Station
Active Advisory: Wind Advisory

Elev 2264 ft 32.61 °N, 101.02 °W | Updated 7 minutes ago

Mostly Cloudy
Mostly Cloudy
50.4 °F
Feels Like 50.4 °F
N
5.0
Wind Variable Wind from South
Gusts 7.0 mph

Today
High -- | Low -- °F
--% Chance of Precip.
Yesterday
High -- | Low -- °F
Precip. -- in
Pressure 29.54 in
Visibility 10.0 miles
Clouds Scattered Clouds 9000 ft
Scattered Clouds 12000 ft
Dew Point 40 °F
Humidity 67%
Rainfall 0.00 in
Snow Depth Not available.
7:44 AM 6:07 PM
Waning Crescent, 34% visible
METAR KSNK 211515Z AUTO 17009KT 10SM SCT090 SCT120 09/03 A2954 RMK AO2 T00850026
Pressure 29.54 in
Visibility 10.0 miles
Clouds Scattered Clouds 9000 ft
Scattered Clouds 12000 ft
Dew Point 40 °F
Humidity 67%
Rainfall 0.00 in
Snow Depth Not available.
7:44 AM 6:07 PM
Waning Crescent, 34% visible
METAR KSNK 211515Z AUTO 17009KT 10SM SCT090 SCT120 09/03 A2954 RMK AO2 T00850026

Get Your Daily Forecast Email!

Thanks for signing up!

Be on the lookout for a verification email in your inbox.

You'll start receiving the daily forecast at 8 AM.

×

10-Day Weather Forecast

Almanac

Astronomy

Jan. 21, 2017 Rise Set
Actual Time
Civil Twilight
Nautical Twilight
Astronomical Twilight
Moon
Length of Visible Light
Length of Day
Tomorrow will be .
, % of the Moon is Illuminated

Today's Extremes

State Highs State Lows

Community

WunderPhotos

Upload Photos

1,962,540 photos uploaded!

WunderBlog® & News

Nearby

Air Quality

  Air Quality AQ Index Pollutant
Not available.

Snow Depth

Station Depth Elevation

Earthquake Activity

City Distance Mag. Time & Date
Minimum magnitude displayed is 2.5.

Coastal Water Temperatures

Place Temperature

Stations

Nearby Weather Stations

Station Location Temp. Windchill Dew Point Humidity Wind Precip. Elev Updated Type
                   

Watches & Warnings

Wind Advisory
Issued: 3:53 AM CST Jan. 21, 2017 – National Weather Service

... Wind Advisory in effect until 6 am CST Sunday...

The National Weather Service in Midland/Odessa has issued a Wind
Advisory, which is in effect until 6 am CST Sunday.

* Timing... today and tonight.

* Winds... west 30 to 40 mph with gusts to around 55 mph.

* Impacts... secure lawn furniture... garbage cans or other
objects which could be blown about by the wind.

Precautionary/preparedness actions...

A Wind Advisory means that winds of 30 mph are expected. Winds
this strong can make driving difficult... especially for high
profile vehicles. Use extra caution.